Time;durP1;ratioP1;P1;durP2;ratioP2;P2;SDS_P1;SDS_P2;PMS_P1;PMS_P2;Temp;Humidity;BMP_temperature;BMP_pressure;BME280_temperature;BME280_humidity;BME280_pressure;Samples;Min_cycle;Max_cycle;Signal;HPM_P1;HPM_P2
2021/12/29 07:48:50;;;;;;;2.23;0.60;;;;;;;;;;4770412;30;20218;-90
2021/12/29 07:51:54;;;;;;;1.40;0.73;;;;;;;;;;4733182;30;20563;-90
2021/12/29 07:55:04;;;;;;;2.53;1.00;;;;;;;;;;4752908;30;20226;-92
2021/12/29 07:58:14;;;;;;;2.80;0.90;;;;;;;;;;4742957;30;20187;-90
2021/12/29 08:01:18;;;;;;;1.90;0.80;;;;;;;;;;4753706;30;20194;-92
2021/12/29 08:04:25;;;;;;;3.40;0.80;;;;;;;;;;4740405;30;20222;-92
2021/12/29 08:07:32;;;;;;;2.70;1.13;;;;;;;;;;4770744;30;20194;-91
2021/12/29 08:10:37;;;;;;;4.90;1.20;;;;;;;;;;4745732;30;20198;-90
2021/12/29 08:13:42;;;;;;;4.77;1.03;;;;;;;;;;4759624;30;20230;-91
2021/12/29 08:16:46;;;;;;;2.33;0.90;;;;;;;;;;4759903;30;20198;-91
2021/12/29 08:19:51;;;;;;;2.70;0.63;;;;;;;;;;4759825;30;20209;-91
2021/12/29 08:22:59;;;;;;;1.67;0.60;;;;;;;;;;4759987;30;20205;-91
2021/12/29 08:26:04;;;;;;;1.93;0.80;;;;;;;;;;4749884;30;20191;-91
2021/12/29 08:29:08;;;;;;;3.10;1.00;;;;;;;;;;4759987;30;20642;-91
2021/12/29 08:32:12;;;;;;;5.40;0.93;;;;;;;;;;4749454;30;20230;-89
2021/12/29 08:35:16;;;;;;;2.90;0.87;;;;;;;;;;4759897;30;20225;-89
2021/12/29 08:38:20;;;;;;;1.60;0.90;;;;;;;;;;4759932;30;20548;-90
2021/12/29 08:41:24;;;;;;;3.40;0.93;;;;;;;;;;4759666;30;20206;-90
2021/12/29 08:44:29;;;;;;;2.47;0.67;;;;;;;;;;4759734;30;20222;-89
2021/12/29 08:47:33;;;;;;;1.90;0.80;;;;;;;;;;4759774;30;20221;-90
2021/12/29 08:50:37;;;;;;;1.20;0.60;;;;;;;;;;4759634;30;20182;-90
2021/12/29 08:53:41;;;;;;;1.70;0.70;;;;;;;;;;4741807;30;20218;-89
2021/12/29 08:56:45;;;;;;;2.57;0.97;;;;;;;;;;4752377;30;20187;-89
2021/12/29 08:59:50;;;;;;;2.67;1.13;;;;;;;;;;4743466;30;20191;-90
2021/12/29 09:02:54;;;;;;;2.40;0.93;;;;;;;;;;4739365;30;20202;-89
2021/12/29 09:05:58;;;;;;;6.10;2.90;;;;;;;;;;4739653;30;20194;-89
2021/12/29 09:09:03;;;;;;;4.37;2.43;;;;;;;;;;4749387;30;20206;-89
2021/12/29 09:12:08;;;;;;;3.33;1.50;;;;;;;;;;4769862;30;20194;-89
2021/12/29 09:15:13;;;;;;;3.53;1.20;;;;;;;;;;4749159;30;20598;-89
2021/12/29 09:18:17;;;;;;;2.80;1.87;;;;;;;;;;4759449;30;20191;-89
2021/12/29 09:21:21;;;;;;;3.60;1.47;;;;;;;;;;4747916;30;20198;-89
2021/12/29 09:24:26;;;;;;;4.77;1.53;;;;;;;;;;4759477;30;20219;-89
2021/12/29 09:27:30;;;;;;;4.53;1.77;;;;;;;;;;4756058;30;20194;-90
2021/12/29 09:30:36;;;;;;;10.63;6.97;;;;;;;;;;4759324;30;20194;-89
2021/12/29 09:33:41;;;;;;;8.20;2.90;;;;;;;;;;4739364;30;20218;-90
2021/12/29 09:36:46;;;;;;;3.93;1.90;;;;;;;;;;4724382;30;20671;-89
2021/12/29 09:39:50;;;;;;;4.63;1.07;;;;;;;;;;4753746;30;20210;-89
2021/12/29 09:42:55;;;;;;;4.57;1.63;;;;;;;;;;4749129;30;20199;-90
2021/12/29 09:45:59;;;;;;;5.93;2.37;;;;;;;;;;4749160;30;20574;-90
2021/12/29 09:49:05;;;;;;;7.17;2.40;;;;;;;;;;4759664;30;20198;-89
2021/12/29 09:52:09;;;;;;;5.23;1.23;;;;;;;;;;4762731;30;20536;-90
2021/12/29 09:55:17;;;;;;;4.70;1.40;;;;;;;;;;4762475;30;20567;-89
2021/12/29 09:58:21;;;;;;;4.43;1.70;;;;;;;;;;4772140;30;20210;-89
2021/12/29 10:01:26;;;;;;;4.37;1.13;;;;;;;;;;4752279;30;20194;-89
2021/12/29 10:04:34;;;;;;;3.73;1.40;;;;;;;;;;4751921;30;20218;-89
2021/12/29 10:07:39;;;;;;;2.93;1.00;;;;;;;;;;4762914;30;20635;-89
2021/12/29 10:10:52;;;;;;;3.87;1.17;;;;;;;;;;4761888;30;20214;-89
2021/12/29 10:13:56;;;;;;;4.63;1.30;;;;;;;;;;4742286;30;20726;-89
2021/12/29 10:17:00;;;;;;;1.77;1.10;;;;;;;;;;4761905;30;20206;-89
2021/12/29 10:20:15;;;;;;;3.23;1.33;;;;;;;;;;4741524;30;20206;-91
2021/12/29 10:23:23;;;;;;;4.20;1.53;;;;;;;;;;4751830;30;20198;-91
2021/12/29 10:26:30;;;;;;;8.33;4.40;;;;;;;;;;4762553;30;20643;-91
2021/12/29 10:29:40;;;;;;;3.70;1.60;;;;;;;;;;4751807;30;20206;-88
2021/12/29 10:32:44;;;;;;;6.53;1.50;;;;;;;;;;4742197;30;20222;-89
2021/12/29 10:35:48;;;;;;;3.10;0.90;;;;;;;;;;4752031;30;20710;-89
2021/12/29 10:39:02;;;;;;;4.03;1.13;;;;;;;;;;4751256;30;20198;-91
2021/12/29 10:42:13;;;;;;;3.10;1.40;;;;;;;;;;4751183;30;20203;-91
2021/12/29 10:45:28;;;;;;;2.97;1.00;;;;;;;;;;4751810;30;20226;-89
2021/12/29 10:48:32;;;;;;;4.53;1.20;;;;;;;;;;4761613;30;20655;-91
2021/12/29 10:51:45;;;;;;;2.53;0.77;;;;;;;;;;4751123;30;20202;-90
2021/12/29 10:54:51;;;;;;;1.90;0.70;;;;;;;;;;4741108;30;20215;-90
2021/12/29 10:58:18;;;;;;;1.83;0.70;;;;;;;;;;4741214;30;20579;-91
2021/12/29 11:01:35;;;;;;;2.47;0.80;;;;;;;;;;4750925;30;20205;-90
2021/12/29 11:04:39;;;;;;;2.90;0.77;;;;;;;;;;4750692;30;20226;-90
2021/12/29 11:07:44;;;;;;;2.43;0.60;;;;;;;;;;4750907;30;20194;-90
2021/12/29 11:10:48;;;;;;;1.83;1.20;;;;;;;;;;4760906;30;20194;-92
2021/12/29 11:13:59;;;;;;;3.90;1.60;;;;;;;;;;4772198;30;20242;-93
2021/12/29 11:17:07;;;;;;;4.93;3.37;;;;;;;;;;4761276;30;20202;-89
2021/12/29 11:20:17;;;;;;;7.17;4.20;;;;;;;;;;4743751;30;20195;-89
2021/12/29 11:23:22;;;;;;;14.27;10.17;;;;;;;;;;4752423;30;20190;-90
2021/12/29 11:26:29;;;;;;;11.80;7.83;;;;;;;;;;4740610;30;20202;-86
2021/12/29 11:29:33;;;;;;;10.27;6.13;;;;;;;;;;4750845;30;20190;-87
2021/12/29 11:32:42;;;;;;;4.00;2.60;;;;;;;;;;4750588;30;20655;-87
2021/12/29 11:35:53;;;;;;;4.67;2.63;;;;;;;;;;4743496;30;20231;-88
2021/12/29 11:38:57;;;;;;;1.67;1.20;;;;;;;;;;4743699;30;20544;-88
2021/12/29 11:42:01;;;;;;;7.63;4.40;;;;;;;;;;4743508;30;20525;-89
2021/12/29 11:45:07;;;;;;;10.47;5.07;;;;;;;;;;4753908;30;20568;-88
2021/12/29 11:48:11;;;;;;;1.83;1.10;;;;;;;;;;4743537;30;20187;-88
2021/12/29 11:51:19;;;;;;;3.57;2.03;;;;;;;;;;4753671;30;20195;-88
2021/12/29 11:54:35;;;;;;;2.40;1.93;;;;;;;;;;4753300;30;20246;-88
2021/12/29 11:57:40;;;;;;;1.50;1.03;;;;;;;;;;4747455;30;20202;-86
2021/12/29 12:00:47;;;;;;;1.77;0.83;;;;;;;;;;4761003;30;20213;-87
2021/12/29 12:03:56;;;;;;;2.50;1.47;;;;;;;;;;4751100;30;20647;-87
2021/12/29 12:07:10;;;;;;;1.77;1.23;;;;;;;;;;4760935;30;20261;-86
2021/12/29 12:10:33;;;;;;;3.53;2.10;;;;;;;;;;4761933;30;20190;-87
2021/12/29 12:13:37;;;;;;;1.60;0.70;;;;;;;;;;4770128;30;20219;-87
2021/12/29 12:17:00;;;;;;;8.63;5.07;;;;;;;;;;4759960;30;20555;-87
2021/12/29 12:20:07;;;;;;;1.77;0.90;;;;;;;;;;4770490;30;20191;-87
2021/12/29 12:23:26;;;;;;;3.10;2.00;;;;;;;;;;4750085;30;20191;-87
2021/12/29 12:26:30;;;;;;;9.83;5.40;;;;;;;;;;4750295;30;20190;-87
2021/12/29 12:29:37;;;;;;;11.63;6.00;;;;;;;;;;4760387;30;20184;-87
2021/12/29 12:32:50;;;;;;;13.93;8.20;;;;;;;;;;4760837;30;20186;-87
2021/12/29 12:36:05;;;;;;;24.57;12.53;;;;;;;;;;4759537;30;20563;-92
2021/12/29 12:39:17;;;;;;;7.20;3.87;;;;;;;;;;4739867;30;20216;-91
2021/12/29 12:42:22;;;;;;;12.33;5.97;;;;;;;;;;4752166;30;20207;-90
2021/12/29 12:45:33;;;;;;;22.47;11.17;;;;;;;;;;4769822;30;20229;-90
2021/12/29 12:48:37;;;;;;;19.73;10.03;;;;;;;;;;4749668;30;20194;-90
2021/12/29 12:51:52;;;;;;;23.87;12.43;;;;;;;;;;4749214;30;20202;-90
2021/12/29 12:54:59;;;;;;;10.50;4.33;;;;;;;;;;4750628;30;20237;-91
2021/12/29 12:58:12;;;;;;;40.37;18.03;;;;;;;;;;4761492;30;20213;-91
2021/12/29 13:01:23;;;;;;;30.13;14.80;;;;;;;;;;4760238;30;20206;-90
2021/12/29 13:04:28;;;;;;;11.97;5.70;;;;;;;;;;4740250;30;20222;-87
2021/12/29 13:07:32;;;;;;;7.10;6.37;;;;;;;;;;4750228;30;20198;-87
2021/12/29 13:10:48;;;;;;;12.77;8.53;;;;;;;;;;4760453;30;20210;-88
2021/12/29 13:13:54;;;;;;;6.23;3.00;;;;;;;;;;4760614;30;20726;-88
2021/12/29 13:16:58;;;;;;;2.37;1.27;;;;;;;;;;4743257;30;20214;-88
2021/12/29 13:20:04;;;;;;;1.90;0.80;;;;;;;;;;4760109;30;20202;-88
2021/12/29 13:23:09;;;;;;;3.40;1.00;;;;;;;;;;4750099;30;20210;-88
2021/12/29 13:26:16;;;;;;;4.53;2.70;;;;;;;;;;4773822;24;20265;-85
2021/12/29 13:29:23;;;;;;;6.27;5.67;;;;;;;;;;4745178;30;20195;-86
2021/12/29 13:33:25;;;;;;;3.50;1.50;;;;;;;;;;4754965;30;20199;-87
2021/12/29 13:46:18;;;;;;;3.77;0.80;;;;;;;;;;4719685;30;20223;-90
2021/12/29 13:49:22;;;;;;;2.73;1.13;;;;;;;;;;4720086;30;20530;-87
2021/12/29 13:52:28;;;;;;;4.23;1.30;;;;;;;;;;4709711;30;20204;-87
2021/12/29 13:55:35;;;;;;;3.97;1.10;;;;;;;;;;4719766;30;20244;-87
2021/12/29 13:58:43;;;;;;;2.27;1.07;;;;;;;;;;4709909;30;20189;-87
2021/12/29 14:01:52;;;;;;;5.33;2.63;;;;;;;;;;4719771;30;20188;-87
2021/12/29 14:04:56;;;;;;;3.63;1.50;;;;;;;;;;4719712;30;20196;-87
2021/12/29 14:08:01;;;;;;;2.80;1.20;;;;;;;;;;4719828;30;20184;-87
2021/12/29 14:11:08;;;;;;;4.63;2.67;;;;;;;;;;4729611;30;20192;-87
2021/12/29 14:14:13;;;;;;;6.23;1.07;;;;;;;;;;4719531;30;20232;-87
2021/12/29 14:17:22;;;;;;;2.97;1.30;;;;;;;;;;4719289;30;20201;-87
2021/12/29 14:20:30;;;;;;;12.93;9.10;;;;;;;;;;4719434;30;20569;-87
2021/12/29 14:23:34;;;;;;;10.00;5.27;;;;;;;;;;4719434;30;20200;-87
2021/12/29 14:26:42;;;;;;;4.27;2.80;;;;;;;;;;4718950;30;20235;-87
2021/12/29 14:29:47;;;;;;;4.20;1.70;;;;;;;;;;4719558;30;20208;-87
2021/12/29 14:33:02;;;;;;;6.27;1.97;;;;;;;;;;4719489;30;20192;-87
2021/12/29 14:36:08;;;;;;;4.90;2.27;;;;;;;;;;4718903;30;20216;-87
2021/12/29 14:39:20;;;;;;;6.07;4.13;;;;;;;;;;4709164;30;20192;-87
2021/12/29 14:42:29;;;;;;;9.53;5.83;;;;;;;;;;4718787;30;20680;-87
2021/12/29 14:45:34;;;;;;;15.10;6.77;;;;;;;;;;4708824;30;20224;-87
2021/12/29 14:48:56;;;;;;;13.63;7.07;;;;;;;;;;4709001;30;20189;-86
2021/12/29 14:52:01;;;;;;;10.63;5.30;;;;;;;;;;4718910;30;20196;-87
2021/12/29 14:55:07;;;;;;;9.53;4.10;;;;;;;;;;4718790;30;20220;-87
2021/12/29 14:58:21;;;;;;;5.60;2.93;;;;;;;;;;4721327;30;20188;-87
2021/12/29 15:01:30;;;;;;;5.93;2.00;;;;;;;;;;4723138;30;20677;-86
2021/12/29 15:04:35;;;;;;;6.33;2.57;;;;;;;;;;4719483;30;20519;-86
2021/12/29 15:07:42;;;;;;;6.83;2.10;;;;;;;;;;4737197;30;20561;-87
2021/12/29 15:10:54;;;;;;;80.83;36.93;;;;;;;;;;4735030;30;20196;-89
2021/12/29 15:13:58;;;;;;;54.93;28.77;;;;;;;;;;4727338;30;20191;-87
2021/12/29 15:17:04;;;;;;;31.90;19.40;;;;;;;;;;4726184;30;20243;-89
2021/12/29 15:20:09;;;;;;;14.87;9.97;;;;;;;;;;4725034;30;20212;-87
2021/12/29 15:23:15;;;;;;;11.73;6.83;;;;;;;;;;4726675;30;20199;-87
2021/12/29 15:26:21;;;;;;;9.17;6.00;;;;;;;;;;4725905;30;20235;-87
2021/12/29 15:29:27;;;;;;;7.77;5.03;;;;;;;;;;4727032;30;20200;-87
2021/12/29 15:32:31;;;;;;;10.70;5.37;;;;;;;;;;4725929;30;20679;-86
2021/12/29 15:35:39;;;;;;;8.63;4.60;;;;;;;;;;4726034;30;20239;-87
2021/12/29 15:38:44;;;;;;;11.50;6.80;;;;;;;;;;4725420;30;20196;-87
2021/12/29 15:41:48;;;;;;;6.77;4.13;;;;;;;;;;4725946;30;20525;-86
2021/12/29 15:44:52;;;;;;;8.60;3.20;;;;;;;;;;4736044;30;20191;-86
2021/12/29 15:47:56;;;;;;;6.77;3.10;;;;;;;;;;4724761;30;20215;-86
2021/12/29 15:51:01;;;;;;;5.47;3.57;;;;;;;;;;4711347;30;20208;-86
2021/12/29 15:54:05;;;;;;;9.33;4.57;;;;;;;;;;4723869;30;20195;-86
2021/12/29 15:57:10;;;;;;;19.43;10.63;;;;;;;;;;4731904;30;20239;-87
2021/12/29 16:00:22;;;;;;;11.03;6.90;;;;;;;;;;4720091;30;20208;-87
2021/12/29 16:03:27;;;;;;;12.23;6.20;;;;;;;;;;4712456;30;20204;-86
2021/12/29 16:06:31;;;;;;;13.33;8.67;;;;;;;;;;4734688;30;20227;-86
2021/12/29 16:09:38;;;;;;;12.87;5.30;;;;;;;;;;4726174;30;20200;-87
2021/12/29 16:12:43;;;;;;;7.40;3.30;;;;;;;;;;4725940;30;20502;-87
2021/12/29 16:15:47;;;;;;;5.47;3.57;;;;;;;;;;4725794;30;20247;-86
2021/12/29 16:18:52;;;;;;;5.83;3.07;;;;;;;;;;4726252;30;20200;-87
2021/12/29 16:21:57;;;;;;;7.33;2.80;;;;;;;;;;4725971;30;20656;-86
2021/12/29 16:25:01;;;;;;;2.97;2.23;;;;;;;;;;4725431;30;20200;-87
2021/12/29 16:28:05;;;;;;;4.23;1.87;;;;;;;;;;4702045;30;20581;-86
2021/12/29 16:31:09;;;;;;;3.93;2.30;;;;;;;;;;4708419;30;20200;-87
2021/12/29 16:34:13;;;;;;;3.13;2.00;;;;;;;;;;4718844;30;20200;-87
2021/12/29 16:37:20;;;;;;;3.43;1.93;;;;;;;;;;4733350;30;20200;-87
2021/12/29 16:40:25;;;;;;;2.10;1.67;;;;;;;;;;4717657;30;20657;-86
2021/12/29 16:43:31;;;;;;;4.23;1.60;;;;;;;;;;4718537;30;20199;-87
2021/12/29 16:46:36;;;;;;;3.07;1.57;;;;;;;;;;4735906;30;20221;-87
2021/12/29 16:49:40;;;;;;;3.73;1.50;;;;;;;;;;4718754;30;20196;-87
2021/12/29 16:52:45;;;;;;;22.17;17.33;;;;;;;;;;4725573;30;20195;-87
2021/12/29 16:55:49;;;;;;;12.17;10.87;;;;;;;;;;4725320;30;20247;-87
2021/12/29 16:58:54;;;;;;;16.33;11.83;;;;;;;;;;4715490;30;20203;-87
2021/12/29 17:01:58;;;;;;;10.33;6.07;;;;;;;;;;4713730;30;20216;-87
2021/12/29 17:05:04;;;;;;;9.03;6.10;;;;;;;;;;4740464;30;20211;-87
2021/12/29 17:08:09;;;;;;;9.23;6.00;;;;;;;;;;4741401;30;20559;-87
2021/12/29 17:11:13;;;;;;;3.97;3.10;;;;;;;;;;4730503;30;20215;-87
2021/12/29 17:14:18;;;;;;;2.40;2.00;;;;;;;;;;4730494;30;20203;-87
2021/12/29 17:17:22;;;;;;;3.27;2.10;;;;;;;;;;4729003;30;20200;-86
2021/12/29 17:20:28;;;;;;;3.23;1.87;;;;;;;;;;4730931;30;20193;-87
2021/12/29 17:23:32;;;;;;;4.17;2.23;;;;;;;;;;4731222;30;20207;-87
2021/12/29 17:26:37;;;;;;;3.23;2.00;;;;;;;;;;4730800;30;20230;-87
2021/12/29 17:29:42;;;;;;;3.37;2.03;;;;;;;;;;4731219;30;20187;-87
2021/12/29 17:32:46;;;;;;;6.50;4.40;;;;;;;;;;4725023;30;20215;-87
2021/12/29 17:35:50;;;;;;;7.80;5.53;;;;;;;;;;4731003;30;20247;-87
2021/12/29 17:38:54;;;;;;;4.20;3.40;;;;;;;;;;4721626;30;20199;-87
2021/12/29 17:41:58;;;;;;;3.80;2.17;;;;;;;;;;4720930;30;20203;-87
2021/12/29 17:45:03;;;;;;;4.17;1.60;;;;;;;;;;4731008;30;20188;-86
2021/12/29 17:48:12;;;;;;;2.30;1.70;;;;;;;;;;4720474;30;20211;-86
2021/12/29 17:51:16;;;;;;;2.87;1.27;;;;;;;;;;4731165;30;20188;-86
2021/12/29 17:54:21;;;;;;;3.80;1.87;;;;;;;;;;4720273;30;20195;-86
2021/12/29 17:57:25;;;;;;;2.47;1.77;;;;;;;;;;4730481;30;20196;-86
2021/12/29 18:00:30;;;;;;;1.93;1.40;;;;;;;;;;4730488;30;20200;-87
2021/12/29 18:03:35;;;;;;;3.20;1.30;;;;;;;;;;4729277;30;20215;-90
2021/12/29 18:06:39;;;;;;;1.73;1.20;;;;;;;;;;4730712;30;20223;-90
2021/12/29 18:09:43;;;;;;;2.20;1.57;;;;;;;;;;4730668;30;20203;-90
2021/12/29 18:12:48;;;;;;;1.37;1.20;;;;;;;;;;4738244;30;20192;-90
2021/12/29 18:15:52;;;;;;;2.53;1.23;;;;;;;;;;4748193;30;20231;-90
2021/12/29 18:19:01;;;;;;;2.60;1.27;;;;;;;;;;4748064;30;20191;-90
2021/12/29 18:22:07;;;;;;;2.93;1.47;;;;;;;;;;4726948;30;20203;-89
2021/12/29 18:25:12;;;;;;;2.30;1.80;;;;;;;;;;4726251;30;20231;-89
2021/12/29 18:28:16;;;;;;;2.60;1.77;;;;;;;;;;4726628;30;20199;-88
2021/12/29 18:31:20;;;;;;;2.53;2.07;;;;;;;;;;4719533;30;20193;-89
2021/12/29 18:34:25;;;;;;;2.40;1.60;;;;;;;;;;4733017;30;20692;-89
2021/12/29 18:37:30;;;;;;;2.83;1.63;;;;;;;;;;4736892;30;20640;-88
2021/12/29 18:40:36;;;;;;;3.57;2.60;;;;;;;;;;4729164;30;20200;-88
2021/12/29 18:43:40;;;;;;;1.93;1.73;;;;;;;;;;4743638;30;20661;-88
2021/12/29 18:46:44;;;;;;;2.40;1.20;;;;;;;;;;4736435;30;20231;-88
2021/12/29 18:49:50;;;;;;;2.07;1.20;;;;;;;;;;4719251;30;20568;-88
2021/12/29 18:52:55;;;;;;;2.57;1.20;;;;;;;;;;4728526;30;20211;-88
2021/12/29 18:55:59;;;;;;;1.20;1.10;;;;;;;;;;4726750;30;20239;-88
2021/12/29 18:59:04;;;;;;;1.73;1.40;;;;;;;;;;4738054;30;20199;-90
2021/12/29 19:02:09;;;;;;;1.33;1.20;;;;;;;;;;4737240;30;20196;-85
2021/12/29 19:05:17;;;;;;;2.33;1.27;;;;;;;;;;4736718;30;20231;-86
2021/12/29 19:08:21;;;;;;;6.30;2.00;;;;;;;;;;4730247;30;20200;-86
2021/12/29 19:11:26;;;;;;;1.90;1.50;;;;;;;;;;4726858;30;20187;-85
2021/12/29 19:14:35;;;;;;;1.17;1.07;;;;;;;;;;4718794;30;20208;-85
2021/12/29 19:17:39;;;;;;;1.57;1.27;;;;;;;;;;4724324;30;20200;-85
2021/12/29 19:20:44;;;;;;;1.57;1.20;;;;;;;;;;4708668;30;20201;-84
2021/12/29 19:23:49;;;;;;;2.83;1.70;;;;;;;;;;4712076;30;20199;-85
2021/12/29 19:27:58;;;;;;;1.87;1.50;;;;;;;;;;4791632;24;20245;-88
2021/12/29 19:31:03;;;;;;;1.83;1.30;;;;;;;;;;4771381;30;20194;-88
2021/12/29 19:34:07;;;;;;;3.40;1.83;;;;;;;;;;4758082;30;20186;-90
2021/12/29 19:37:13;;;;;;;3.70;1.50;;;;;;;;;;4768572;30;20237;-92
2021/12/29 19:40:20;;;;;;;3.10;1.63;;;;;;;;;;4770674;30;20567;-89
2021/12/29 19:43:25;;;;;;;1.87;1.57;;;;;;;;;;4753785;30;20187;-91
2021/12/29 19:46:29;;;;;;;2.47;1.90;;;;;;;;;;4769491;30;20721;-88
2021/12/29 19:49:33;;;;;;;3.30;2.00;;;;;;;;;;4775004;30;20201;-90
2021/12/29 19:52:38;;;;;;;3.23;2.00;;;;;;;;;;4768258;30;20197;-89
2021/12/29 19:55:43;;;;;;;2.27;1.87;;;;;;;;;;4768778;30;20708;-88
2021/12/29 19:58:48;;;;;;;3.30;2.10;;;;;;;;;;4768216;30;20194;-88
2021/12/29 20:01:52;;;;;;;3.33;2.17;;;;;;;;;;4763868;30;20198;-91
2021/12/29 20:04:57;;;;;;;4.63;1.70;;;;;;;;;;4768920;30;20515;-89
2021/12/29 20:08:06;;;;;;;3.30;1.90;;;;;;;;;;4768484;30;20661;-91
2021/12/29 20:11:10;;;;;;;2.87;2.17;;;;;;;;;;4752465;30;20194;-88
2021/12/29 20:14:15;;;;;;;3.90;2.60;;;;;;;;;;4767896;30;20201;-92
2021/12/29 20:17:19;;;;;;;3.27;2.47;;;;;;;;;;4767765;30;20237;-91
2021/12/29 20:20:23;;;;;;;4.03;2.90;;;;;;;;;;4768294;30;20522;-92
2021/12/29 20:23:28;;;;;;;9.53;5.37;;;;;;;;;;4750751;30;20194;-92
2021/12/29 20:26:33;;;;;;;4.90;3.33;;;;;;;;;;4764387;30;20233;-90
2021/12/29 20:29:37;;;;;;;3.80;3.20;;;;;;;;;;4775961;30;20194;-91
2021/12/29 20:32:41;;;;;;;4.67;3.70;;;;;;;;;;4775005;30;20212;-90
2021/12/29 20:35:45;;;;;;;3.77;2.97;;;;;;;;;;4775444;30;20230;-92
2021/12/29 20:38:49;;;;;;;4.57;3.40;;;;;;;;;;4766220;30;20201;-90
2021/12/29 20:41:54;;;;;;;4.10;3.03;;;;;;;;;;4761829;30;20194;-91
2021/12/29 20:44:59;;;;;;;4.03;3.03;;;;;;;;;;4767463;30;20197;-88
2021/12/29 20:48:03;;;;;;;3.97;2.97;;;;;;;;;;4788572;30;20182;-90
2021/12/29 20:51:07;;;;;;;4.03;3.27;;;;;;;;;;4766167;30;20185;-90
2021/12/29 20:54:12;;;;;;;5.67;3.30;;;;;;;;;;4764556;30;20198;-91
2021/12/29 20:57:17;;;;;;;4.13;3.30;;;;;;;;;;4777400;30;20229;-88
2021/12/29 21:00:23;;;;;;;4.47;3.07;;;;;;;;;;4754487;30;20194;-91
2021/12/29 21:03:27;;;;;;;3.70;3.27;;;;;;;;;;4763598;30;20186;-91
2021/12/29 21:06:32;;;;;;;3.50;3.20;;;;;;;;;;4767597;30;20225;-88
2021/12/29 21:09:36;;;;;;;3.93;3.53;;;;;;;;;;4765980;30;20652;-87
2021/12/29 21:12:41;;;;;;;4.10;3.13;;;;;;;;;;4752337;30;20197;-87
2021/12/29 21:15:45;;;;;;;4.47;2.93;;;;;;;;;;4766696;30;20701;-87
2021/12/29 21:18:49;;;;;;;4.13;3.00;;;;;;;;;;4761727;30;20206;-87
2021/12/29 21:21:53;;;;;;;4.43;3.10;;;;;;;;;;4767679;30;20185;-87
2021/12/29 21:24:57;;;;;;;4.60;3.50;;;;;;;;;;4768293;30;20190;-90
2021/12/29 21:28:02;;;;;;;3.17;2.87;;;;;;;;;;4776840;30;20209;-90
2021/12/29 21:31:08;;;;;;;4.00;2.83;;;;;;;;;;4767025;30;20201;-90
2021/12/29 21:34:12;;;;;;;4.17;3.13;;;;;;;;;;4767320;30;20198;-87
2021/12/29 21:37:17;;;;;;;3.90;3.37;;;;;;;;;;4758884;30;20237;-90
2021/12/29 21:40:23;;;;;;;3.90;2.90;;;;;;;;;;4749625;30;20198;-88
2021/12/29 21:43:27;;;;;;;4.80;3.70;;;;;;;;;;4774585;30;20211;-88
2021/12/29 21:46:31;;;;;;;5.20;3.60;;;;;;;;;;4756700;30;20225;-91
2021/12/29 21:49:36;;;;;;;5.83;3.37;;;;;;;;;;4759091;30;20205;-88
2021/12/29 21:52:41;;;;;;;4.00;3.23;;;;;;;;;;4770758;30;20201;-88
2021/12/29 21:55:46;;;;;;;4.43;3.50;;;;;;;;;;4760460;30;20221;-88
2021/12/29 21:58:50;;;;;;;5.33;3.40;;;;;;;;;;4762084;30;20190;-91
2021/12/29 22:01:54;;;;;;;4.03;3.43;;;;;;;;;;4769935;30;20202;-91
2021/12/29 22:04:58;;;;;;;4.97;3.80;;;;;;;;;;4759701;30;20198;-88
2021/12/29 22:08:04;;;;;;;3.40;3.10;;;;;;;;;;4770119;30;20653;-89
2021/12/29 22:11:09;;;;;;;4.77;3.63;;;;;;;;;;4756376;30;20662;-88
2021/12/29 22:14:14;;;;;;;5.10;3.60;;;;;;;;;;4752506;30;20190;-89
2021/12/29 22:17:18;;;;;;;4.63;3.70;;;;;;;;;;4754812;30;20233;-88
2021/12/29 22:20:24;;;;;;;3.83;3.13;;;;;;;;;;4770186;30;20185;-91
2021/12/29 22:23:29;;;;;;;4.20;3.27;;;;;;;;;;4759882;30;20201;-89
2021/12/29 22:26:33;;;;;;;3.27;2.57;;;;;;;;;;4769427;30;20237;-91
2021/12/29 22:29:38;;;;;;;4.10;2.90;;;;;;;;;;4754123;30;20190;-91
2021/12/29 22:32:43;;;;;;;3.87;3.20;;;;;;;;;;4769653;30;20545;-89
2021/12/29 22:35:52;;;;;;;3.90;3.30;;;;;;;;;;4780307;30;20221;-88
2021/12/29 22:38:56;;;;;;;3.27;2.90;;;;;;;;;;4780009;30;20186;-91
2021/12/29 22:42:01;;;;;;;5.33;2.10;;;;;;;;;;4753162;30;20194;-91
2021/12/29 22:45:07;;;;;;;3.03;2.23;;;;;;;;;;4779331;30;20201;-89
2021/12/29 22:48:14;;;;;;;2.00;1.80;;;;;;;;;;4758946;30;20650;-88
2021/12/29 22:51:18;;;;;;;1.80;1.70;;;;;;;;;;4752978;30;20202;-88
2021/12/29 22:54:22;;;;;;;1.80;1.70;;;;;;;;;;4742645;30;20206;-91
2021/12/29 22:57:26;;;;;;;1.40;1.30;;;;;;;;;;4752357;30;20230;-88
2021/12/29 23:00:34;;;;;;;3.07;1.20;;;;;;;;;;4762825;30;20191;-90
2021/12/29 23:03:39;;;;;;;1.70;1.20;;;;;;;;;;4762072;30;20210;-91
2021/12/29 23:06:43;;;;;;;2.50;0.83;;;;;;;;;;4771369;30;20222;-90
2021/12/29 23:09:47;;;;;;;0.90;0.80;;;;;;;;;;4758863;30;20193;-89
2021/12/29 23:12:52;;;;;;;1.43;1.10;;;;;;;;;;4761993;30;20191;-88
2021/12/29 23:15:57;;;;;;;1.20;0.93;;;;;;;;;;4751248;30;20230;-90
2021/12/29 23:19:04;;;;;;;1.37;0.80;;;;;;;;;;4768866;30;20653;-89
2021/12/29 23:22:08;;;;;;;1.30;1.20;;;;;;;;;;4779297;30;20186;-90
2021/12/29 23:25:13;;;;;;;1.13;1.03;;;;;;;;;;4768999;30;20185;-90
2021/12/29 23:28:17;;;;;;;1.00;0.93;;;;;;;;;;4779438;30;20182;-91
2021/12/29 23:31:21;;;;;;;1.40;1.30;;;;;;;;;;4768632;30;20658;-91
2021/12/29 23:34:26;;;;;;;1.57;1.40;;;;;;;;;;4761523;30;20190;-89
2021/12/29 23:37:30;;;;;;;1.30;1.20;;;;;;;;;;4761473;30;20241;-89
2021/12/29 23:40:35;;;;;;;1.40;1.30;;;;;;;;;;4768405;30;20198;-91
2021/12/29 23:43:39;;;;;;;2.00;1.60;;;;;;;;;;4766248;30;20182;-90
2021/12/29 23:46:44;;;;;;;1.60;1.40;;;;;;;;;;4768625;30;20225;-88
2021/12/29 23:49:48;;;;;;;1.50;1.20;;;;;;;;;;4768877;30;20677;-91
2021/12/29 23:52:52;;;;;;;1.70;1.50;;;;;;;;;;4768216;30;20197;-90
2021/12/29 23:55:58;;;;;;;2.23;1.40;;;;;;;;;;4751766;30;20234;-91
2021/12/29 23:59:02;;;;;;;1.93;1.40;;;;;;;;;;4753283;30;20202;-90
